createdAt,value
2023-01-29T12:40:32.237Z,999.68
2023-01-29T12:41:33.095Z,999.59
2023-01-29T12:42:33.971Z,999.62
2023-01-29T12:43:34.858Z,999.59
2023-01-29T12:44:35.752Z,999.54
2023-01-29T12:45:36.670Z,999.55
2023-01-29T12:46:37.825Z,999.51
2023-01-29T12:47:38.827Z,999.5
2023-01-29T12:48:39.717Z,999.52
2023-01-29T12:49:40.623Z,999.53
2023-01-29T12:50:41.991Z,999.55
2023-01-29T12:51:42.878Z,999.45
2023-01-29T12:52:43.780Z,999.5
2023-01-29T12:53:44.711Z,999.51
2023-01-29T12:54:45.619Z,999.49
2023-01-29T12:55:46.534Z,999.51
2023-01-29T12:56:47.465Z,999.5
2023-01-29T12:57:48.301Z,999.44
2023-01-29T12:58:49.131Z,999.43
2023-01-29T12:59:49.960Z,999.39
2023-01-29T13:00:51.480Z,999.35
2023-01-29T13:01:52.375Z,999.35
2023-01-29T13:02:53.584Z,999.37
2023-01-29T13:03:54.637Z,999.36
2023-01-29T13:04:55.493Z,999.37
2023-01-29T13:05:56.303Z,999.38
2023-01-29T13:06:57.148Z,999.44
2023-01-29T13:07:57.982Z,999.4
2023-01-29T13:08:58.840Z,999.36
2023-01-29T13:09:59.733Z,999.35
2023-01-29T13:11:00.575Z,999.37
2023-01-29T13:12:01.417Z,999.32
2023-01-29T13:13:02.271Z,999.3
2023-01-29T13:14:03.211Z,999.29
2023-01-29T13:15:04.138Z,999.26
2023-01-29T13:16:05.365Z,999.31
2023-01-29T13:17:06.285Z,999.3
2023-01-29T13:18:07.150Z,999.28
2023-01-29T13:19:07.979Z,999.26
2023-01-29T13:20:08.827Z,999.24
2023-01-29T13:21:09.662Z,999.23
2023-01-29T13:22:10.818Z,999.23
2023-01-29T13:23:11.618Z,999.16
2023-01-29T13:24:12.431Z,999.16
2023-01-29T13:25:13.256Z,999.13
2023-01-29T13:26:14.818Z,999.13
2023-01-29T13:27:15.751Z,999.1
2023-01-29T13:28:16.622Z,999.11
2023-01-29T13:29:17.426Z,999.15
2023-01-29T13:30:19.105Z,999.14
2023-01-29T13:31:20.144Z,999.1
2023-01-29T13:32:21.030Z,999.15
2023-01-29T13:33:21.839Z,999.13
2023-01-29T13:34:22.681Z,999.15
2023-01-29T13:35:23.540Z,999.14
2023-01-29T13:36:24.411Z,999.13
2023-01-29T13:37:25.213Z,999.2
2023-01-29T13:38:26.207Z,999.2
2023-01-29T13:39:27.046Z,999.22
2023-01-29T13:40:27.968Z,999.2
2023-01-29T13:41:28.818Z,999.24
2023-01-29T13:42:29.639Z,999.23
2023-01-29T13:43:30.465Z,999.22
2023-01-29T13:44:31.438Z,999.26
2023-01-29T13:45:32.253Z,999.2
2023-01-29T13:46:33.126Z,999.19
2023-01-29T13:47:34.024Z,999.15
2023-01-29T13:48:35.395Z,999.18
2023-01-29T13:49:36.224Z,999.16
2023-01-29T13:50:37.157Z,999.15
2023-01-29T13:51:37.985Z,999.15
2023-01-29T13:52:38.887Z,999.14
2023-01-29T13:53:39.714Z,999.16
2023-01-29T13:54:40.685Z,999.14
2023-01-29T13:55:41.636Z,999.18
2023-01-29T13:56:42.523Z,999.21
2023-01-29T13:57:43.570Z,999.15
2023-01-29T13:58:44.423Z,999.23
2023-01-29T13:59:45.272Z,999.18
2023-01-29T14:00:46.136Z,999.19
2023-01-29T14:01:47.176Z,999.24
2023-01-29T14:02:48.347Z,999.2
2023-01-29T14:04:06.234Z,999.24
2023-01-29T14:04:51.238Z,999.22
2023-01-29T14:05:52.120Z,999.2
2023-01-29T14:06:53.040Z,999.19
2023-01-29T14:07:53.899Z,999.23
2023-01-29T14:08:54.732Z,999.15
2023-01-29T14:09:55.579Z,999.22
2023-01-29T14:10:56.390Z,999.18
2023-01-29T14:11:57.189Z,999.19
2023-01-29T14:12:58.018Z,999.23
2023-01-29T14:13:58.849Z,999.2
2023-01-29T14:14:59.732Z,999.25
2023-01-29T14:16:00.540Z,999.21
2023-01-29T14:17:01.416Z,999.24
2023-01-29T14:18:02.334Z,999.17
2023-01-29T14:19:03.202Z,999.22
2023-01-29T14:20:04.045Z,999.22
2023-01-29T14:21:05.012Z,999.19
2023-01-29T14:22:05.914Z,999.18
2023-01-29T14:23:06.732Z,999.2
2023-01-29T14:24:07.560Z,999.21
2023-01-29T14:25:08.426Z,999.2
2023-01-29T14:26:09.439Z,999.24
2023-01-29T14:27:10.282Z,999.22
2023-01-29T14:28:11.996Z,999.18
2023-01-29T14:29:34.137Z,999.14
2023-01-29T14:30:12.883Z,999.18
2023-01-29T14:31:14.337Z,999.15
2023-01-29T14:32:15.299Z,999.08
2023-01-29T14:33:16.158Z,999.1
2023-01-29T14:34:16.981Z,999.09
2023-01-29T14:35:18.788Z,999.04
2023-01-29T14:36:19.764Z,999.04
2023-01-29T14:37:20.651Z,999.01
2023-01-29T14:38:21.468Z,999.02
2023-01-29T14:39:22.288Z,999
2023-01-29T14:40:23.174Z,999.05
2023-01-29T14:41:24.007Z,999.02
2023-01-29T14:42:24.901Z,999.05
2023-01-29T14:43:26.032Z,999.08
2023-01-29T14:44:26.848Z,999.1
2023-01-29T14:45:27.656Z,999.06
2023-01-29T14:46:28.840Z,999.08
2023-01-29T14:47:29.712Z,999.09
2023-01-29T14:48:30.564Z,999.12
2023-01-29T14:49:31.378Z,999.07
2023-01-29T14:50:32.363Z,999.13
2023-01-29T14:51:33.186Z,999.07
2023-01-29T14:52:34.052Z,999.08
2023-01-29T14:53:35.128Z,999.05
2023-01-29T14:54:36.050Z,999.02
2023-01-29T14:55:36.858Z,999.04
2023-01-29T14:56:37.691Z,998.99
2023-01-29T14:57:38.543Z,998.96
2023-01-29T14:58:39.477Z,998.99
2023-01-29T14:59:41.509Z,999
2023-01-29T15:00:42.332Z,998.98
2023-01-29T15:01:43.530Z,998.92
2023-01-29T15:02:44.989Z,998.93
2023-01-29T15:03:46.052Z,998.9
2023-01-29T15:04:46.857Z,998.93
2023-01-29T15:05:47.684Z,998.93
2023-01-29T15:06:48.731Z,998.95
2023-01-29T15:07:49.718Z,998.96
2023-01-29T15:08:50.568Z,998.97
2023-01-29T15:09:51.474Z,998.92
2023-01-29T15:10:52.285Z,998.91
2023-01-29T15:11:53.276Z,998.93
2023-01-29T15:12:54.202Z,998.9
2023-01-29T15:13:55.044Z,998.92
2023-01-29T15:14:55.852Z,998.86
2023-01-29T15:15:57.000Z,998.87
2023-01-29T15:17:00.720Z,998.9
2023-01-29T15:17:58.324Z,998.91
2023-01-29T15:18:59.175Z,998.94
2023-01-29T15:19:59.969Z,998.87
2023-01-29T15:21:00.759Z,998.92
2023-01-29T15:22:01.555Z,998.83
2023-01-29T15:23:02.324Z,998.81
2023-01-29T15:24:03.179Z,998.88
2023-01-29T15:25:03.965Z,998.84
2023-01-29T15:26:04.799Z,998.83
2023-01-29T15:27:05.606Z,998.74
2023-01-29T15:28:06.394Z,998.81
2023-01-29T15:29:07.227Z,998.83
2023-01-29T15:30:08.227Z,998.86
2023-01-29T15:31:09.813Z,998.86
2023-01-29T15:32:10.719Z,998.87
2023-01-29T15:33:11.571Z,998.9
2023-01-29T15:34:12.514Z,998.9
2023-01-29T15:35:13.312Z,998.93
2023-01-29T15:36:14.106Z,998.94
2023-01-29T15:37:14.909Z,998.95
2023-01-29T15:38:15.734Z,998.98
2023-01-29T15:39:16.571Z,999
2023-01-29T15:40:17.348Z,998.97
2023-01-29T15:41:18.193Z,998.97
2023-01-29T15:42:19.001Z,999.02
2023-01-29T15:43:19.836Z,999.02
2023-01-29T15:44:20.634Z,998.99
2023-01-29T15:45:21.429Z,999.03
2023-01-29T15:46:22.242Z,999.02
2023-01-29T15:47:23.252Z,999.01
2023-01-29T15:48:24.173Z,999.03
2023-01-29T15:49:25.024Z,999
2023-01-29T15:50:25.874Z,999.02
2023-01-29T15:51:26.677Z,999.02
2023-01-29T15:52:27.472Z,999.05
2023-01-29T15:53:28.281Z,999.07
2023-01-29T15:54:29.170Z,999.1
2023-01-29T15:55:29.972Z,999.08
2023-01-29T15:56:30.743Z,999.11
2023-01-29T15:57:31.584Z,999.12
2023-01-29T15:58:32.395Z,999.1
2023-01-29T15:59:33.384Z,999.09
2023-01-29T16:00:34.197Z,999.09
2023-01-29T16:01:35.221Z,999.07
2023-01-29T16:02:36.388Z,999.11
2023-01-29T16:03:37.211Z,999.05
2023-01-29T16:04:38.037Z,999.07
2023-01-29T16:05:38.833Z,999.04
2023-01-29T16:06:39.630Z,999.02
2023-01-29T16:07:40.437Z,998.98
2023-01-29T16:08:41.294Z,998.94
2023-01-29T16:09:42.081Z,998.92
2023-01-29T16:10:42.959Z,998.88
2023-01-29T16:11:43.741Z,998.89
2023-01-29T16:12:44.562Z,998.93
2023-01-29T16:13:45.329Z,998.94
2023-01-29T16:14:46.371Z,998.93
2023-01-29T16:15:47.357Z,998.91
2023-01-29T16:16:48.504Z,998.96
2023-01-29T16:17:49.403Z,998.9
2023-01-29T16:19:01.724Z,998.96
2023-01-29T16:19:53.030Z,998.96
2023-01-29T16:20:53.839Z,998.98
2023-01-29T16:21:54.669Z,998.96
2023-01-29T16:22:55.480Z,998.95
2023-01-29T16:23:56.310Z,998.97
2023-01-29T16:24:57.139Z,998.94
2023-01-29T16:25:57.978Z,998.95
2023-01-29T16:26:58.856Z,999.02
2023-01-29T16:27:59.636Z,998.97
2023-01-29T16:29:00.511Z,998.98
2023-01-29T16:30:01.355Z,998.98
2023-01-29T16:31:05.213Z,998.96
2023-01-29T16:32:03.881Z,999.03
2023-01-29T16:33:04.968Z,999
2023-01-29T16:34:05.770Z,999.05
2023-01-29T16:35:06.611Z,999.04
2023-01-29T16:36:07.430Z,999.06
2023-01-29T16:37:08.304Z,999.05
2023-01-29T16:38:09.108Z,999.1
2023-01-29T16:39:09.961Z,999.06
2023-01-29T16:40:10.765Z,999.08
2023-01-29T16:41:11.593Z,999.1
2023-01-29T16:42:12.564Z,999.1
2023-01-29T16:43:13.375Z,999.1
2023-01-29T16:44:14.143Z,999.08
2023-01-29T16:45:16.470Z,999.1
2023-01-29T16:46:17.559Z,999.12
2023-01-29T16:47:18.437Z,999.05
2023-01-29T16:48:19.243Z,999.09
2023-01-29T16:49:20.049Z,999.11
2023-01-29T16:50:20.874Z,999.07
2023-01-29T16:51:21.685Z,999.12
2023-01-29T16:52:22.528Z,999.13
2023-01-29T16:53:23.639Z,999.14
2023-01-29T16:54:24.419Z,999.18
2023-01-29T16:55:25.241Z,999.22
2023-01-29T16:56:26.068Z,999.22
2023-01-29T16:57:26.892Z,999.19
2023-01-29T16:58:27.681Z,999.2
2023-01-29T16:59:28.487Z,999.16
2023-01-29T17:00:29.544Z,999.2
2023-01-29T17:01:30.393Z,999.16
2023-01-29T17:02:31.223Z,999.19
2023-01-29T17:03:32.192Z,999.18
2023-01-29T17:04:33.050Z,999.21
2023-01-29T17:05:33.848Z,999.28
2023-01-29T17:06:34.677Z,999.26
2023-01-29T17:07:35.501Z,999.26
2023-01-29T17:08:36.299Z,999.25
2023-01-29T17:09:37.153Z,999.28
2023-01-29T17:10:37.945Z,999.28
2023-01-29T17:11:38.751Z,999.32
2023-01-29T17:12:39.574Z,999.29
2023-01-29T17:13:40.367Z,999.3
2023-01-29T17:14:41.185Z,999.28
2023-01-29T17:15:41.954Z,999.28
2023-01-29T17:16:42.807Z,999.35
2023-01-29T17:17:43.605Z,999.31
2023-01-29T17:18:44.573Z,999.34
2023-01-29T17:19:45.349Z,999.34
2023-01-29T17:20:46.146Z,999.31
2023-01-29T17:21:46.975Z,999.33
2023-01-29T17:22:47.807Z,999.35
2023-01-29T17:23:48.654Z,999.31
2023-01-29T17:24:49.504Z,999.29
2023-01-29T17:25:50.303Z,999.34
2023-01-29T17:26:51.090Z,999.28
2023-01-29T17:27:51.937Z,999.31
2023-01-29T17:28:52.716Z,999.32
2023-01-29T17:29:54.058Z,999.3
2023-01-29T17:31:07.587Z,999.3
